This is the latest recevied weather packets stored in our database for station/object WC4PEM-7. If no packets are shown the sender has not sent any weather packets the latest 10 day(s).
| Time | Temp. | Humidity | Pressure | Rain* | Wind** | Luminosity | Snow |
|---|---|---|---|---|---|---|---|
| 1777294603 | 23.89° C | 82% | 1015.3 hPa | 0 mm | - | - | - |
| 1777294450 | 23.89° C | 82% | 1015.3 hPa | 0 mm | - | - | - |
| 1777294437 | 23.89° C | 83% | 1015.3 hPa | 0 mm | - | - | - |
| 1777294323 | 23.89° C | 83% | 1015.3 hPa | 0 mm | - | - | - |
| 1777294150 | 23.89° C | 83% | 1015.3 hPa | 0 mm | - | - | - |
| 1777294074 | 23.33° C | 85% | 1015.1 hPa | 0 mm | - | - | - |
| 1777294036 | 23.33° C | 85% | 1015.1 hPa | 0 mm | - | - | - |
| 1777293850 | 23.33° C | 85% | 1015.1 hPa | 0 mm | - | - | - |
| 1777293550 | 23.33° C | 86% | 1015.2 hPa | 0 mm | - | - | - |
| 1777293470 | 23.33° C | 87% | 1015.1 hPa | 0 mm | - | - | - |
| 1777293250 | 23.33° C | 87% | 1015.1 hPa | 0 mm | - | - | - |
| 1777293091 | 21.11° C | 94% | 1014.8 hPa | 0 mm | - | - | - |
| 1777292950 | 22.78° C | 89% | 1015.2 hPa | 0 mm | - | - | - |
| 1777292900 | 22.78° C | 90% | 1015.1 hPa | 0 mm | - | - | - |
| 1777292818 | 22.78° C | 90% | 1015.1 hPa | 0 mm | - | - | - |
| 1777292650 | 22.78° C | 90% | 1015.1 hPa | 0 mm | - | - | - |
| 1777292350 | 22.22° C | 91% | 1015 hPa | 0 mm | - | - | - |
| 1777292050 | 21.67° C | 93% | 1014.9 hPa | 0 mm | - | - | - |
| 1777291750 | 21.67° C | 94% | 1014.8 hPa | 0 mm | - | - | - |
| 1777291450 | 21.11° C | 94% | 1014.9 hPa | 0 mm | - | - | - |
| 1777291150 | 21.11° C | 94% | 1014.8 hPa | 0 mm | - | - | - |
| 1777290850 | 21.11° C | 94% | 1014.8 hPa | 0 mm | - | - | - |
| 1777290593 | 20.56° C | 94% | 1014.8 hPa | 0 mm | - | - | - |
| 1777290550 | 20.56° C | 94% | 1014.8 hPa | 0 mm | - | - | - |
| 1777290250 | 20.56° C | 94% | 1014.7 hPa | 0 mm | - | - | - |
* Rain latest hour (hover to see other rain measurements)
** Current wind speed in m/s (hover to see current wind gust speed)